sensor_id;sensor_type;location;lat;lon;timestamp;temperature;humidity
41644;DHT22;44236;48.098;11.582;2023-05-15T00:02:07;20.20;56.90
41644;DHT22;44236;48.098;11.582;2023-05-15T00:04:33;20.20;56.80
41644;DHT22;44236;48.098;11.582;2023-05-15T00:06:58;20.20;56.80
41644;DHT22;44236;48.098;11.582;2023-05-15T00:09:24;20.20;56.70
41644;DHT22;44236;48.098;11.582;2023-05-15T00:11:49;20.10;56.80
41644;DHT22;44236;48.098;11.582;2023-05-15T00:14:15;20.10;57.00
41644;DHT22;44236;48.098;11.582;2023-05-15T00:16:41;20.10;56.90
41644;DHT22;44236;48.098;11.582;2023-05-15T00:19:07;20.10;56.90
41644;DHT22;44236;48.098;11.582;2023-05-15T00:21:32;20.10;56.90
41644;DHT22;44236;48.098;11.582;2023-05-15T00:23:58;20.10;57.00
41644;DHT22;44236;48.098;11.582;2023-05-15T00:26:23;20.00;56.80
41644;DHT22;44236;48.098;11.582;2023-05-15T00:28:50;20.00;57.30
41644;DHT22;44236;48.098;11.582;2023-05-15T00:31:15;20.00;56.90
41644;DHT22;44236;48.098;11.582;2023-05-15T00:33:41;20.00;56.90
41644;DHT22;44236;48.098;11.582;2023-05-15T00:36:07;20.00;57.00
41644;DHT22;44236;48.098;11.582;2023-05-15T00:38:33;20.00;56.80
41644;DHT22;44236;48.098;11.582;2023-05-15T00:41:00;20.00;57.00
41644;DHT22;44236;48.098;11.582;2023-05-15T00:43:26;20.00;57.10
41644;DHT22;44236;48.098;11.582;2023-05-15T00:45:52;20.00;57.10
41644;DHT22;44236;48.098;11.582;2023-05-15T00:48:19;20.00;57.00
41644;DHT22;44236;48.098;11.582;2023-05-15T00:50:49;19.90;57.00
41644;DHT22;44236;48.098;11.582;2023-05-15T00:53:16;19.90;57.10
41644;DHT22;44236;48.098;11.582;2023-05-15T00:55:44;19.90;57.00
41644;DHT22;44236;48.098;11.582;2023-05-15T00:58:10;19.90;57.10
41644;DHT22;44236;48.098;11.582;2023-05-15T01:00:37;19.90;57.00
41644;DHT22;44236;48.098;11.582;2023-05-15T01:03:04;19.90;57.10
41644;DHT22;44236;48.098;11.582;2023-05-15T01:05:30;19.90;57.00
41644;DHT22;44236;48.098;11.582;2023-05-15T01:08:22;19.80;57.10
41644;DHT22;44236;48.098;11.582;2023-05-15T01:10:51;19.90;57.10
41644;DHT22;44236;48.098;11.582;2023-05-15T01:13:19;19.80;57.00
41644;DHT22;44236;48.098;11.582;2023-05-15T01:15:46;19.80;56.90
41644;DHT22;44236;48.098;11.582;2023-05-15T01:18:12;19.80;57.00
41644;DHT22;44236;48.098;11.582;2023-05-15T01:21:00;19.80;57.10
41644;DHT22;44236;48.098;11.582;2023-05-15T01:24:02;19.80;57.00
41644;DHT22;44236;48.098;11.582;2023-05-15T01:31:46;19.70;57.10
41644;DHT22;44236;48.098;11.582;2023-05-15T01:34:15;19.80;57.10
41644;DHT22;44236;48.098;11.582;2023-05-15T01:36:50;19.70;57.00
41644;DHT22;44236;48.098;11.582;2023-05-15T01:39:20;19.70;57.00
41644;DHT22;44236;48.098;11.582;2023-05-15T01:41:54;19.70;57.00
41644;DHT22;44236;48.098;11.582;2023-05-15T01:44:28;19.70;57.00
41644;DHT22;44236;48.098;11.582;2023-05-15T01:46:57;19.70;57.10
41644;DHT22;44236;48.098;11.582;2023-05-15T01:49:25;19.70;57.10
41644;DHT22;44236;48.098;11.582;2023-05-15T01:51:58;19.70;57.00
41644;DHT22;44236;48.098;11.582;2023-05-15T01:54:28;19.60;57.20
41644;DHT22;44236;48.098;11.582;2023-05-15T01:56:54;19.70;57.00
41644;DHT22;44236;48.098;11.582;2023-05-15T01:59:22;19.70;57.00
41644;DHT22;44236;48.098;11.582;2023-05-15T02:01:49;19.70;57.10
41644;DHT22;44236;48.098;11.582;2023-05-15T02:04:16;19.70;57.20
41644;DHT22;44236;48.098;11.582;2023-05-15T02:06:43;19.60;57.40
41644;DHT22;44236;48.098;11.582;2023-05-15T02:09:09;19.60;57.20
41644;DHT22;44236;48.098;11.582;2023-05-15T02:11:35;19.60;57.10
41644;DHT22;44236;48.098;11.582;2023-05-15T02:14:03;19.60;57.10
41644;DHT22;44236;48.098;11.582;2023-05-15T02:16:29;19.60;57.00
41644;DHT22;44236;48.098;11.582;2023-05-15T02:18:55;19.60;57.00
41644;DHT22;44236;48.098;11.582;2023-05-15T02:21:21;19.60;57.10
41644;DHT22;44236;48.098;11.582;2023-05-15T02:23:46;19.60;57.20
41644;DHT22;44236;48.098;11.582;2023-05-15T02:34:38;19.60;57.20
41644;DHT22;44236;48.098;11.582;2023-05-15T02:37:12;19.60;57.10
41644;DHT22;44236;48.098;11.582;2023-05-15T02:39:39;19.60;57.00
41644;DHT22;44236;48.098;11.582;2023-05-15T02:42:07;19.50;57.30
41644;DHT22;44236;48.098;11.582;2023-05-15T02:44:34;19.60;57.20
41644;DHT22;44236;48.098;11.582;2023-05-15T02:47:02;19.50;57.20
41644;DHT22;44236;48.098;11.582;2023-05-15T02:49:28;19.50;57.10
41644;DHT22;44236;48.098;11.582;2023-05-15T02:51:54;19.50;57.10
41644;DHT22;44236;48.098;11.582;2023-05-15T02:54:19;19.50;57.20
41644;DHT22;44236;48.098;11.582;2023-05-15T02:56:45;19.50;57.20
41644;DHT22;44236;48.098;11.582;2023-05-15T02:59:11;19.50;57.10
41644;DHT22;44236;48.098;11.582;2023-05-15T03:01:43;19.50;57.10
41644;DHT22;44236;48.098;11.582;2023-05-15T03:04:08;19.50;57.10
41644;DHT22;44236;48.098;11.582;2023-05-15T03:06:34;19.50;57.20
41644;DHT22;44236;48.098;11.582;2023-05-15T03:09:00;19.50;57.10
41644;DHT22;44236;48.098;11.582;2023-05-15T03:11:25;19.40;57.00
41644;DHT22;44236;48.098;11.582;2023-05-15T03:13:51;19.50;57.20
41644;DHT22;44236;48.098;11.582;2023-05-15T03:16:17;19.50;57.30
41644;DHT22;44236;48.098;11.582;2023-05-15T03:18:42;19.50;57.10
41644;DHT22;44236;48.098;11.582;2023-05-15T03:21:08;19.40;57.10
41644;DHT22;44236;48.098;11.582;2023-05-15T03:23:33;19.50;57.10
41644;DHT22;44236;48.098;11.582;2023-05-15T03:25:59;19.50;57.10
41644;DHT22;44236;48.098;11.582;2023-05-15T03:28:25;19.40;57.10
41644;DHT22;44236;48.098;11.582;2023-05-15T03:30:50;19.40;57.00
41644;DHT22;44236;48.098;11.582;2023-05-15T03:33:16;19.40;57.20
41644;DHT22;44236;48.098;11.582;2023-05-15T03:35:41;19.40;57.10
41644;DHT22;44236;48.098;11.582;2023-05-15T03:38:07;19.40;57.00
41644;DHT22;44236;48.098;11.582;2023-05-15T03:40:32;19.40;57.10
41644;DHT22;44236;48.098;11.582;2023-05-15T03:42:58;19.40;57.10
41644;DHT22;44236;48.098;11.582;2023-05-15T03:45:24;19.40;57.00
41644;DHT22;44236;48.098;11.582;2023-05-15T03:47:49;19.40;57.10
41644;DHT22;44236;48.098;11.582;2023-05-15T03:50:15;19.40;57.30
41644;DHT22;44236;48.098;11.582;2023-05-15T03:52:40;19.40;57.10
41644;DHT22;44236;48.098;11.582;2023-05-15T03:55:06;19.40;57.00
41644;DHT22;44236;48.098;11.582;2023-05-15T03:57:32;19.60;57.30
41644;DHT22;44236;48.098;11.582;2023-05-15T03:59:59;19.30;57.10
41644;DHT22;44236;48.098;11.582;2023-05-15T04:02:28;19.40;57.10
41644;DHT22;44236;48.098;11.582;2023-05-15T04:04:53;19.30;57.00
41644;DHT22;44236;48.098;11.582;2023-05-15T04:07:19;19.40;57.10
41644;DHT22;44236;48.098;11.582;2023-05-15T04:09:44;19.30;57.00
41644;DHT22;44236;48.098;11.582;2023-05-15T04:12:10;19.30;57.00
41644;DHT22;44236;48.098;11.582;2023-05-15T04:14:36;19.30;57.20
41644;DHT22;44236;48.098;11.582;2023-05-15T04:17:01;19.30;57.10
41644;DHT22;44236;48.098;11.582;2023-05-15T04:19:27;19.30;57.30
41644;DHT22;44236;48.098;11.582;2023-05-15T04:21:53;19.30;57.20
41644;DHT22;44236;48.098;11.582;2023-05-15T04:24:18;19.30;57.20
41644;DHT22;44236;48.098;11.582;2023-05-15T04:26:44;19.30;57.20
41644;DHT22;44236;48.098;11.582;2023-05-15T04:29:09;19.30;57.10
41644;DHT22;44236;48.098;11.582;2023-05-15T04:31:35;19.30;56.90
41644;DHT22;44236;48.098;11.582;2023-05-15T04:34:02;19.30;57.30
41644;DHT22;44236;48.098;11.582;2023-05-15T04:36:29;19.40;56.90
41644;DHT22;44236;48.098;11.582;2023-05-15T04:38:55;19.40;56.80
41644;DHT22;44236;48.098;11.582;2023-05-15T04:41:21;19.40;56.70
41644;DHT22;44236;48.098;11.582;2023-05-15T04:43:46;19.50;56.70
41644;DHT22;44236;48.098;11.582;2023-05-15T04:46:12;19.50;56.80
41644;DHT22;44236;48.098;11.582;2023-05-15T04:48:37;19.50;56.80
41644;DHT22;44236;48.098;11.582;2023-05-15T04:51:03;19.50;56.60
41644;DHT22;44236;48.098;11.582;2023-05-15T04:53:29;19.50;56.80
41644;DHT22;44236;48.098;11.582;2023-05-15T04:55:54;19.60;56.80
41644;DHT22;44236;48.098;11.582;2023-05-15T04:58:20;19.50;56.70
41644;DHT22;44236;48.098;11.582;2023-05-15T05:00:45;19.60;56.50
41644;DHT22;44236;48.098;11.582;2023-05-15T05:03:11;19.60;57.00
41644;DHT22;44236;48.098;11.582;2023-05-15T05:05:37;19.60;56.70
41644;DHT22;44236;48.098;11.582;2023-05-15T05:08:02;19.60;56.90
41644;DHT22;44236;48.098;11.582;2023-05-15T05:10:28;19.60;56.50
41644;DHT22;44236;48.098;11.582;2023-05-15T05:12:54;19.70;56.80
41644;DHT22;44236;48.098;11.582;2023-05-15T05:15:19;19.70;56.70
41644;DHT22;44236;48.098;11.582;2023-05-15T05:17:45;19.70;56.30
41644;DHT22;44236;48.098;11.582;2023-05-15T05:20:11;19.70;55.30
41644;DHT22;44236;48.098;11.582;2023-05-15T05:22:37;19.70;54.80
41644;DHT22;44236;48.098;11.582;2023-05-15T05:25:05;19.70;54.10
41644;DHT22;44236;48.098;11.582;2023-05-15T05:27:31;19.80;54.40
41644;DHT22;44236;48.098;11.582;2023-05-15T05:29:56;19.80;54.40
41644;DHT22;44236;48.098;11.582;2023-05-15T05:32:22;19.80;54.50
41644;DHT22;44236;48.098;11.582;2023-05-15T05:34:47;19.90;53.90
41644;DHT22;44236;48.098;11.582;2023-05-15T05:37:13;20.00;54.50
41644;DHT22;44236;48.098;11.582;2023-05-15T05:39:38;20.00;53.90
41644;DHT22;44236;48.098;11.582;2023-05-15T05:42:04;20.00;55.50
41644;DHT22;44236;48.098;11.582;2023-05-15T05:44:30;20.00;55.10
41644;DHT22;44236;48.098;11.582;2023-05-15T05:46:55;20.10;55.50
41644;DHT22;44236;48.098;11.582;2023-05-15T05:49:21;20.10;55.70
41644;DHT22;44236;48.098;11.582;2023-05-15T05:51:47;20.20;55.60
41644;DHT22;44236;48.098;11.582;2023-05-15T05:54:12;20.20;54.60
41644;DHT22;44236;48.098;11.582;2023-05-15T05:56:40;20.30;54.20
41644;DHT22;44236;48.098;11.582;2023-05-15T05:59:07;20.30;53.80
41644;DHT22;44236;48.098;11.582;2023-05-15T06:01:32;20.40;53.90
41644;DHT22;44236;48.098;11.582;2023-05-15T06:03:58;20.40;54.60
41644;DHT22;44236;48.098;11.582;2023-05-15T06:06:23;20.50;53.80
41644;DHT22;44236;48.098;11.582;2023-05-15T06:08:49;20.50;55.20
41644;DHT22;44236;48.098;11.582;2023-05-15T06:11:15;20.50;54.20
41644;DHT22;44236;48.098;11.582;2023-05-15T06:13:40;20.60;55.20
41644;DHT22;44236;48.098;11.582;2023-05-15T06:16:07;20.60;55.50
41644;DHT22;44236;48.098;11.582;2023-05-15T06:18:33;20.60;55.30
41644;DHT22;44236;48.098;11.582;2023-05-15T06:20:59;20.60;55.20
41644;DHT22;44236;48.098;11.582;2023-05-15T06:23:25;20.60;54.90
41644;DHT22;44236;48.098;11.582;2023-05-15T06:25:51;20.70;54.30
41644;DHT22;44236;48.098;11.582;2023-05-15T06:28:17;20.70;53.70
41644;DHT22;44236;48.098;11.582;2023-05-15T06:30:42;20.80;53.70
41644;DHT22;44236;48.098;11.582;2023-05-15T06:33:08;20.80;54.60
41644;DHT22;44236;48.098;11.582;2023-05-15T06:35:34;20.90;55.00
41644;DHT22;44236;48.098;11.582;2023-05-15T06:38:00;20.90;54.30
41644;DHT22;44236;48.098;11.582;2023-05-15T06:40:26;20.90;54.20
41644;DHT22;44236;48.098;11.582;2023-05-15T06:42:52;21.00;54.20
41644;DHT22;44236;48.098;11.582;2023-05-15T06:45:17;21.00;54.20
41644;DHT22;44236;48.098;11.582;2023-05-15T06:47:43;21.00;54.20
41644;DHT22;44236;48.098;11.582;2023-05-15T06:50:09;21.00;54.40
41644;DHT22;44236;48.098;11.582;2023-05-15T06:52:35;21.00;54.10
41644;DHT22;44236;48.098;11.582;2023-05-15T06:55:00;21.10;53.90
41644;DHT22;44236;48.098;11.582;2023-05-15T06:57:26;21.10;54.00
41644;DHT22;44236;48.098;11.582;2023-05-15T06:59:52;21.10;53.90
41644;DHT22;44236;48.098;11.582;2023-05-15T07:02:17;21.10;54.10
41644;DHT22;44236;48.098;11.582;2023-05-15T07:04:43;21.10;54.10
41644;DHT22;44236;48.098;11.582;2023-05-15T07:07:09;21.20;54.30
41644;DHT22;44236;48.098;11.582;2023-05-15T07:09:34;21.20;54.10
41644;DHT22;44236;48.098;11.582;2023-05-15T07:12:00;21.20;54.20
41644;DHT22;44236;48.098;11.582;2023-05-15T07:14:26;21.20;54.30
41644;DHT22;44236;48.098;11.582;2023-05-15T07:16:51;21.20;54.10
41644;DHT22;44236;48.098;11.582;2023-05-15T07:19:17;21.30;54.00
41644;DHT22;44236;48.098;11.582;2023-05-15T07:21:45;21.30;54.10
41644;DHT22;44236;48.098;11.582;2023-05-15T07:24:10;21.30;54.20
41644;DHT22;44236;48.098;11.582;2023-05-15T07:26:36;21.30;54.10
41644;DHT22;44236;48.098;11.582;2023-05-15T07:29:02;21.30;53.90
41644;DHT22;44236;48.098;11.582;2023-05-15T07:31:28;21.30;53.70
41644;DHT22;44236;48.098;11.582;2023-05-15T07:33:55;21.30;54.00
41644;DHT22;44236;48.098;11.582;2023-05-15T07:36:21;21.40;53.80
41644;DHT22;44236;48.098;11.582;2023-05-15T07:38:46;21.40;54.00
41644;DHT22;44236;48.098;11.582;2023-05-15T07:41:12;21.40;53.90
41644;DHT22;44236;48.098;11.582;2023-05-15T07:43:38;21.40;53.30
41644;DHT22;44236;48.098;11.582;2023-05-15T07:46:03;21.40;53.50
41644;DHT22;44236;48.098;11.582;2023-05-15T07:48:29;21.40;53.70
41644;DHT22;44236;48.098;11.582;2023-05-15T07:50:54;21.50;53.60
41644;DHT22;44236;48.098;11.582;2023-05-15T07:53:21;21.50;53.80
41644;DHT22;44236;48.098;11.582;2023-05-15T07:55:47;21.40;53.70
41644;DHT22;44236;48.098;11.582;2023-05-15T07:58:13;21.50;53.90
41644;DHT22;44236;48.098;11.582;2023-05-15T08:00:39;21.50;54.00
41644;DHT22;44236;48.098;11.582;2023-05-15T08:03:04;21.50;54.30
41644;DHT22;44236;48.098;11.582;2023-05-15T08:05:30;21.50;54.00
41644;DHT22;44236;48.098;11.582;2023-05-15T08:07:56;21.50;54.00
41644;DHT22;44236;48.098;11.582;2023-05-15T08:10:22;21.40;54.60
41644;DHT22;44236;48.098;11.582;2023-05-15T08:12:48;21.50;54.70
41644;DHT22;44236;48.098;11.582;2023-05-15T08:15:15;21.50;54.50
41644;DHT22;44236;48.098;11.582;2023-05-15T08:17:41;21.50;54.30
41644;DHT22;44236;48.098;11.582;2023-05-15T08:20:07;21.50;54.40
41644;DHT22;44236;48.098;11.582;2023-05-15T08:22:33;21.50;54.50
41644;DHT22;44236;48.098;11.582;2023-05-15T08:24:59;21.60;53.70
41644;DHT22;44236;48.098;11.582;2023-05-15T08:27:25;21.60;54.00
41644;DHT22;44236;48.098;11.582;2023-05-15T08:29:51;21.60;53.90
41644;DHT22;44236;48.098;11.582;2023-05-15T08:32:18;21.50;54.30
41644;DHT22;44236;48.098;11.582;2023-05-15T08:34:44;21.50;54.50
41644;DHT22;44236;48.098;11.582;2023-05-15T08:37:09;21.40;54.50
41644;DHT22;44236;48.098;11.582;2023-05-15T08:39:35;21.50;54.60
41644;DHT22;44236;48.098;11.582;2023-05-15T08:42:08;21.40;54.40
41644;DHT22;44236;48.098;11.582;2023-05-15T08:44:35;21.40;54.60
41644;DHT22;44236;48.098;11.582;2023-05-15T08:47:01;21.30;55.30
41644;DHT22;44236;48.098;11.582;2023-05-15T08:49:54;21.30;54.90
41644;DHT22;44236;48.098;11.582;2023-05-15T08:52:24;21.30;55.10
41644;DHT22;44236;48.098;11.582;2023-05-15T08:54:49;21.30;54.80
41644;DHT22;44236;48.098;11.582;2023-05-15T08:57:16;21.30;55.50
41644;DHT22;44236;48.098;11.582;2023-05-15T08:59:42;21.30;55.10
41644;DHT22;44236;48.098;11.582;2023-05-15T09:02:07;21.30;55.40
41644;DHT22;44236;48.098;11.582;2023-05-15T09:04:33;21.20;55.00
41644;DHT22;44236;48.098;11.582;2023-05-15T09:07:00;21.20;55.20
41644;DHT22;44236;48.098;11.582;2023-05-15T09:09:27;21.20;55.30
41644;DHT22;44236;48.098;11.582;2023-05-15T09:11:54;21.20;55.60
41644;DHT22;44236;48.098;11.582;2023-05-15T09:14:20;21.10;55.70
41644;DHT22;44236;48.098;11.582;2023-05-15T09:16:45;21.10;55.70
41644;DHT22;44236;48.098;11.582;2023-05-15T09:19:14;21.10;55.80
41644;DHT22;44236;48.098;11.582;2023-05-15T09:21:40;21.10;55.60
41644;DHT22;44236;48.098;11.582;2023-05-15T09:26:45;21.00;55.60
41644;DHT22;44236;48.098;11.582;2023-05-15T09:29:11;21.10;55.70
41644;DHT22;44236;48.098;11.582;2023-05-15T09:31:39;21.00;55.30
41644;DHT22;44236;48.098;11.582;2023-05-15T09:34:05;21.00;55.40
41644;DHT22;44236;48.098;11.582;2023-05-15T09:36:31;21.00;55.70
41644;DHT22;44236;48.098;11.582;2023-05-15T09:39:00;21.00;55.90
41644;DHT22;44236;48.098;11.582;2023-05-15T09:41:27;21.00;55.90
41644;DHT22;44236;48.098;11.582;2023-05-15T09:43:53;21.00;55.50
41644;DHT22;44236;48.098;11.582;2023-05-15T09:46:22;21.00;55.80
41644;DHT22;44236;48.098;11.582;2023-05-15T09:48:48;21.00;55.80
41644;DHT22;44236;48.098;11.582;2023-05-15T09:51:15;21.00;55.70
41644;DHT22;44236;48.098;11.582;2023-05-15T09:53:46;21.00;55.70
41644;DHT22;44236;48.098;11.582;2023-05-15T09:56:12;21.00;55.70
41644;DHT22;44236;48.098;11.582;2023-05-15T09:58:54;21.00;55.80
41644;DHT22;44236;48.098;11.582;2023-05-15T10:01:23;20.90;56.10
41644;DHT22;44236;48.098;11.582;2023-05-15T10:04:02;21.00;56.20
41644;DHT22;44236;48.098;11.582;2023-05-15T10:06:35;21.00;55.90
41644;DHT22;44236;48.098;11.582;2023-05-15T10:09:02;21.00;56.10
41644;DHT22;44236;48.098;11.582;2023-05-15T10:11:29;21.00;55.60
41644;DHT22;44236;48.098;11.582;2023-05-15T10:13:56;20.90;53.40
41644;DHT22;44236;48.098;11.582;2023-05-15T10:16:24;20.90;51.50
41644;DHT22;44236;48.098;11.582;2023-05-15T10:18:50;20.80;50.70
41644;DHT22;44236;48.098;11.582;2023-05-15T10:21:18;20.70;50.10
41644;DHT22;44236;48.098;11.582;2023-05-15T10:23:44;20.60;50.80
41644;DHT22;44236;48.098;11.582;2023-05-15T10:26:20;20.60;51.20
41644;DHT22;44236;48.098;11.582;2023-05-15T10:28:47;20.60;51.30
41644;DHT22;44236;48.098;11.582;2023-05-15T10:31:15;20.60;49.80
41644;DHT22;44236;48.098;11.582;2023-05-15T10:33:42;20.50;49.40
41644;DHT22;44236;48.098;11.582;2023-05-15T10:36:09;20.50;50.50
41644;DHT22;44236;48.098;11.582;2023-05-15T10:38:36;20.50;50.40
41644;DHT22;44236;48.098;11.582;2023-05-15T10:41:03;20.40;49.70
41644;DHT22;44236;48.098;11.582;2023-05-15T10:43:30;20.40;50.90
41644;DHT22;44236;48.098;11.582;2023-05-15T10:45:56;20.40;50.70
41644;DHT22;44236;48.098;11.582;2023-05-15T10:48:23;20.30;52.00
41644;DHT22;44236;48.098;11.582;2023-05-15T10:50:49;20.30;53.40
41644;DHT22;44236;48.098;11.582;2023-05-15T10:53:15;20.30;53.60
41644;DHT22;44236;48.098;11.582;2023-05-15T10:55:41;20.30;53.80
41644;DHT22;44236;48.098;11.582;2023-05-15T10:58:08;20.40;54.20
41644;DHT22;44236;48.098;11.582;2023-05-15T11:00:40;20.40;54.60
41644;DHT22;44236;48.098;11.582;2023-05-15T11:03:07;20.40;54.10
41644;DHT22;44236;48.098;11.582;2023-05-15T11:06:08;20.50;54.00
41644;DHT22;44236;48.098;11.582;2023-05-15T11:08:36;20.50;54.00
41644;DHT22;44236;48.098;11.582;2023-05-15T11:11:02;20.50;54.30
41644;DHT22;44236;48.098;11.582;2023-05-15T11:14:33;20.60;54.30
41644;DHT22;44236;48.098;11.582;2023-05-15T11:19:38;20.60;54.80
41644;DHT22;44236;48.098;11.582;2023-05-15T11:27:16;20.60;56.10
41644;DHT22;44236;48.098;11.582;2023-05-15T11:30:05;20.70;54.80
41644;DHT22;44236;48.098;11.582;2023-05-15T11:35:36;20.70;54.30
41644;DHT22;44236;48.098;11.582;2023-05-15T11:40:51;20.70;53.90
41644;DHT22;44236;48.098;11.582;2023-05-15T11:43:27;20.70;53.50
41644;DHT22;44236;48.098;11.582;2023-05-15T11:45:58;20.70;54.00
41644;DHT22;44236;48.098;11.582;2023-05-15T11:48:30;20.70;53.60
41644;DHT22;44236;48.098;11.582;2023-05-15T11:50:56;20.80;54.90
41644;DHT22;44236;48.098;11.582;2023-05-15T11:53:22;20.70;54.50
41644;DHT22;44236;48.098;11.582;2023-05-15T11:55:51;20.70;53.80
41644;DHT22;44236;48.098;11.582;2023-05-15T11:58:19;20.70;53.50
41644;DHT22;44236;48.098;11.582;2023-05-15T12:00:46;20.70;54.00
41644;DHT22;44236;48.098;11.582;2023-05-15T12:03:16;20.70;53.90
41644;DHT22;44236;48.098;11.582;2023-05-15T12:05:43;20.70;54.90
41644;DHT22;44236;48.098;11.582;2023-05-15T12:08:10;20.70;54.50
41644;DHT22;44236;48.098;11.582;2023-05-15T12:10:41;20.70;54.40
41644;DHT22;44236;48.098;11.582;2023-05-15T12:13:07;20.70;53.50
41644;DHT22;44236;48.098;11.582;2023-05-15T12:15:39;20.70;54.10
41644;DHT22;44236;48.098;11.582;2023-05-15T12:18:06;20.70;54.70
41644;DHT22;44236;48.098;11.582;2023-05-15T12:20:34;20.70;55.00
41644;DHT22;44236;48.098;11.582;2023-05-15T12:23:04;20.70;55.10
41644;DHT22;44236;48.098;11.582;2023-05-15T12:25:31;20.70;55.30
41644;DHT22;44236;48.098;11.582;2023-05-15T12:28:00;20.80;55.60
41644;DHT22;44236;48.098;11.582;2023-05-15T12:30:27;20.70;55.60
41644;DHT22;44236;48.098;11.582;2023-05-15T12:33:07;20.70;54.70
41644;DHT22;44236;48.098;11.582;2023-05-15T12:35:34;20.70;54.10
41644;DHT22;44236;48.098;11.582;2023-05-15T12:38:04;20.80;55.80
41644;DHT22;44236;48.098;11.582;2023-05-15T12:40:32;20.70;55.90
41644;DHT22;44236;48.098;11.582;2023-05-15T12:43:03;20.80;55.50
41644;DHT22;44236;48.098;11.582;2023-05-15T12:45:29;20.80;57.30
41644;DHT22;44236;48.098;11.582;2023-05-15T12:47:57;20.70;56.60
41644;DHT22;44236;48.098;11.582;2023-05-15T12:50:24;20.70;55.80
41644;DHT22;44236;48.098;11.582;2023-05-15T12:52:52;20.70;54.80
41644;DHT22;44236;48.098;11.582;2023-05-15T12:55:31;20.70;56.20
41644;DHT22;44236;48.098;11.582;2023-05-15T12:58:04;20.80;56.70
41644;DHT22;44236;48.098;11.582;2023-05-15T13:00:37;20.70;56.40
41644;DHT22;44236;48.098;11.582;2023-05-15T13:03:03;20.70;56.90
41644;DHT22;44236;48.098;11.582;2023-05-15T13:05:33;20.70;57.30
41644;DHT22;44236;48.098;11.582;2023-05-15T13:08:01;20.70;57.00
41644;DHT22;44236;48.098;11.582;2023-05-15T13:10:30;20.80;57.00
41644;DHT22;44236;48.098;11.582;2023-05-15T13:12:56;20.70;56.90
41644;DHT22;44236;48.098;11.582;2023-05-15T13:15:32;20.80;57.50
41644;DHT22;44236;48.098;11.582;2023-05-15T13:18:25;20.70;57.20
41644;DHT22;44236;48.098;11.582;2023-05-15T13:20:51;20.70;57.00
41644;DHT22;44236;48.098;11.582;2023-05-15T13:23:19;20.70;56.60
41644;DHT22;44236;48.098;11.582;2023-05-15T13:25:45;20.80;57.10
41644;DHT22;44236;48.098;11.582;2023-05-15T13:28:11;20.80;56.10
41644;DHT22;44236;48.098;11.582;2023-05-15T13:30:38;20.80;56.40
41644;DHT22;44236;48.098;11.582;2023-05-15T13:33:06;20.80;56.70
41644;DHT22;44236;48.098;11.582;2023-05-15T13:35:32;20.80;56.90
41644;DHT22;44236;48.098;11.582;2023-05-15T13:37:58;20.70;56.70
41644;DHT22;44236;48.098;11.582;2023-05-15T13:40:25;20.80;56.60
41644;DHT22;44236;48.098;11.582;2023-05-15T13:42:51;20.70;56.50
41644;DHT22;44236;48.098;11.582;2023-05-15T13:45:17;20.80;56.60
41644;DHT22;44236;48.098;11.582;2023-05-15T13:47:43;20.70;56.50
41644;DHT22;44236;48.098;11.582;2023-05-15T13:50:14;20.70;56.30
41644;DHT22;44236;48.098;11.582;2023-05-15T13:52:41;20.70;56.80
41644;DHT22;44236;48.098;11.582;2023-05-15T13:55:07;20.80;56.50
41644;DHT22;44236;48.098;11.582;2023-05-15T13:57:37;20.70;56.60
41644;DHT22;44236;48.098;11.582;2023-05-15T14:00:07;20.80;56.70
41644;DHT22;44236;48.098;11.582;2023-05-15T14:02:36;20.80;56.60
41644;DHT22;44236;48.098;11.582;2023-05-15T14:05:02;20.80;58.20
41644;DHT22;44236;48.098;11.582;2023-05-15T14:07:29;20.70;58.60
41644;DHT22;44236;48.098;11.582;2023-05-15T14:09:55;20.60;58.90
41644;DHT22;44236;48.098;11.582;2023-05-15T14:12:20;20.50;58.40
41644;DHT22;44236;48.098;11.582;2023-05-15T14:14:46;20.40;58.60
41644;DHT22;44236;48.098;11.582;2023-05-15T14:17:13;20.40;58.40
41644;DHT22;44236;48.098;11.582;2023-05-15T14:19:41;20.40;58.50
41644;DHT22;44236;48.098;11.582;2023-05-15T14:22:07;20.50;58.30
41644;DHT22;44236;48.098;11.582;2023-05-15T14:24:33;20.60;57.20
41644;DHT22;44236;48.098;11.582;2023-05-15T14:26:59;20.60;58.50
41644;DHT22;44236;48.098;11.582;2023-05-15T14:29:24;20.70;56.90
41644;DHT22;44236;48.098;11.582;2023-05-15T14:31:50;20.70;56.50
41644;DHT22;44236;48.098;11.582;2023-05-15T14:34:17;20.70;56.20
41644;DHT22;44236;48.098;11.582;2023-05-15T14:36:43;20.70;56.80
41644;DHT22;44236;48.098;11.582;2023-05-15T14:39:09;20.70;55.80
41644;DHT22;44236;48.098;11.582;2023-05-15T14:41:35;20.70;55.50
41644;DHT22;44236;48.098;11.582;2023-05-15T14:44:00;20.70;56.90
41644;DHT22;44236;48.098;11.582;2023-05-15T14:46:26;20.70;57.50
41644;DHT22;44236;48.098;11.582;2023-05-15T14:48:52;20.80;56.10
41644;DHT22;44236;48.098;11.582;2023-05-15T14:51:18;20.70;55.80
41644;DHT22;44236;48.098;11.582;2023-05-15T14:53:43;20.70;56.80
41644;DHT22;44236;48.098;11.582;2023-05-15T14:56:09;20.70;56.70
41644;DHT22;44236;48.098;11.582;2023-05-15T14:58:34;20.70;57.20
41644;DHT22;44236;48.098;11.582;2023-05-15T15:01:01;20.70;56.90
41644;DHT22;44236;48.098;11.582;2023-05-15T15:03:26;20.70;56.90
41644;DHT22;44236;48.098;11.582;2023-05-15T15:05:52;20.70;57.10
41644;DHT22;44236;48.098;11.582;2023-05-15T15:08:17;20.70;57.10
41644;DHT22;44236;48.098;11.582;2023-05-15T15:10:44;20.70;57.00
41644;DHT22;44236;48.098;11.582;2023-05-15T15:13:11;20.70;57.20
41644;DHT22;44236;48.098;11.582;2023-05-15T15:15:38;20.70;57.30
41644;DHT22;44236;48.098;11.582;2023-05-15T15:18:05;20.70;57.30
41644;DHT22;44236;48.098;11.582;2023-05-15T15:20:31;20.70;57.80
41644;DHT22;44236;48.098;11.582;2023-05-15T15:22:57;20.60;57.50
41644;DHT22;44236;48.098;11.582;2023-05-15T15:25:23;20.40;57.80
41644;DHT22;44236;48.098;11.582;2023-05-15T15:27:48;20.30;58.20
41644;DHT22;44236;48.098;11.582;2023-05-15T15:30:15;20.30;58.80
41644;DHT22;44236;48.098;11.582;2023-05-15T15:32:41;20.40;57.90
41644;DHT22;44236;48.098;11.582;2023-05-15T15:35:07;20.50;57.90
41644;DHT22;44236;48.098;11.582;2023-05-15T15:37:34;20.50;57.10
41644;DHT22;44236;48.098;11.582;2023-05-15T15:40:01;20.50;56.50
41644;DHT22;44236;48.098;11.582;2023-05-15T15:42:27;20.60;56.60
41644;DHT22;44236;48.098;11.582;2023-05-15T15:44:56;20.60;56.60
41644;DHT22;44236;48.098;11.582;2023-05-15T15:47:22;20.60;56.70